Ram Vi — WRA8604 — position and weather

sailwx.info

Track history (hours):
 
Tides and Currents Weather Stations Pressure Air Temp Water Temp Dewpoint Dewpoint Depression Visibility Wind Speed Wind Dir Waves Ship Positions

Ram Vi

Owner: ARIES MARINE CORP, LAFAYETTE, LA. More information available from US FCC via Universal Licensing System and Coast Guard Vessel Documentation Center.

Last reported at 2016-Jul-29 18:13 UTC. Time now 2016-Aug-29 12:56 UTC.
Position N 29°44' W 092°06'.
Warning: this ship's position is 30 days out of date.

MMSI: 367035040.

Date/timePositionNaut miles runAvg speedWind from/ knotsBaromVisibWave heightAir tempDewpointWater temp
2016-Jul-29 18:13N 29°44' W 092°06'4 5.5
2016-Jul-29 17:33N 29°47' W 092°08'1 0.7
2016-Jul-29 16:07N 29°48' W 092°09'0 0.4
2016-Jul-29 15:30N 29°47' W 092°09'3 3.0
2016-Jul-29 14:33N 29°48' W 092°05'6 5.9
2016-Jul-29 13:34N 29°50' W 091°59'6 6.4
2016-Jul-29 12:33N 29°51' W 091°52'6 0.7
2016-Jul-29 04:21N 29°56' W 091°51'0 0.0
2016-Jul-29 03:33N 29°56' W 091°51'0 0.0
2016-Jul-29 02:09N 29°56' W 091°51'0 0.0
2016-Jul-29 01:27N 29°56' W 091°51'0 0.0
2016-Jul-28 10:12N 29°56' W 091°51'0 0.0
2016-Jul-27 16:17N 29°56' W 091°51'  
2016-Jul-20 13:22N 29°56' W 091°51'0 0.0
2016-Jul-20 09:13N 29°56' W 091°51'0 0.0
2016-Jul-20 08:31N 29°56' W 091°51'0 0.0
2016-Jul-20 07:31N 29°56' W 091°51'0 0.0
2016-Jul-20 06:22N 29°56' W 091°51'0 0.0
2016-Jul-20 05:23N 29°56' W 091°51'0 0.0
2016-Jul-20 04:23N 29°56' W 091°51'0 0.0
2016-Jul-20 03:10N 29°56' W 091°51'0 0.0
2016-Jul-20 02:25N 29°56' W 091°51'0 0.0
2016-Jul-20 01:28N 29°56' W 091°51'0 0.0
2016-Jul-20 00:28N 29°56' W 091°51'0 0.0
2016-Jul-19 19:13N 29°56' W 091°51'0 0.0
2016-Jul-19 18:25N 29°56' W 091°51'  
Track history (hours):
 
Tides and Currents Weather Stations Pressure Air Temp Water Temp Dewpoint Dewpoint Depression Visibility Wind Speed Wind Dir Waves Ship Positions

Ram Vi

Owner: ARIES MARINE CORP, LAFAYETTE, LA. More information available from US FCC via Universal Licensing System and Coast Guard Vessel Documentation Center.

Last reported at 2016-Jul-29 18:13 UTC. Time now 2016-Aug-29 12:56 UTC.
Position N 29°44' W 092°06'.
Warning: this ship's position is 30 days out of date.

MMSI: 367035040.

Date/timePositionNaut miles runAvg speedWind from/ knotsBaromVisibWave heightAir tempDewpointWater temp
2016-Jul-29 18:13N 29°44' W 092°06'4 5.5
2016-Jul-29 17:33N 29°47' W 092°08'1 0.7
2016-Jul-29 16:07N 29°48' W 092°09'0 0.4
2016-Jul-29 15:30N 29°47' W 092°09'3 3.0
2016-Jul-29 14:33N 29°48' W 092°05'6 5.9
2016-Jul-29 13:34N 29°50' W 091°59'6 6.4
2016-Jul-29 12:33N 29°51' W 091°52'6 0.7
2016-Jul-29 04:21N 29°56' W 091°51'0 0.0
2016-Jul-29 03:33N 29°56' W 091°51'0 0.0
2016-Jul-29 02:09N 29°56' W 091°51'0 0.0
2016-Jul-29 01:27N 29°56' W 091°51'0 0.0
2016-Jul-28 10:12N 29°56' W 091°51'0 0.0
2016-Jul-27 16:17N 29°56' W 091°51'  
2016-Jul-20 13:22N 29°56' W 091°51'0 0.0
2016-Jul-20 09:13N 29°56' W 091°51'0 0.0
2016-Jul-20 08:31N 29°56' W 091°51'0 0.0
2016-Jul-20 07:31N 29°56' W 091°51'0 0.0
2016-Jul-20 06:22N 29°56' W 091°51'0 0.0
2016-Jul-20 05:23N 29°56' W 091°51'0 0.0
2016-Jul-20 04:23N 29°56' W 091°51'0 0.0
2016-Jul-20 03:10N 29°56' W 091°51'0 0.0
2016-Jul-20 02:25N 29°56' W 091°51'0 0.0
2016-Jul-20 01:28N 29°56' W 091°51'0 0.0
2016-Jul-20 00:28N 29°56' W 091°51'0 0.0
2016-Jul-19 19:13N 29°56' W 091°51'0 0.0
2016-Jul-19 18:25N 29°56' W 091°51'  

Dump ship's entire track history